Atlanta, GA

2:26 PM EST on March 01, 2015 (GMT -0500)
Dekalb-Peachtree | Change Station
CLOSE
Current Station
Airport
Location: Atlanta Dekalb,
Elevation: 1001 ft
Nearby Weather Stations

Elev 1001 ft 33.88 °N, 84.30 °W | Updated 33 minutes ago

Overcast
Overcast
42 °F
Feels Like 40 °F
N
4
Wind Variable Wind from East

Today
High -- | Low -- °F
--% Chance of Precip.
Yesterday
High -- | Low -- °F
Precip. -- in
7:06 AM 6:33 PM
Waxing Gibbous, 86% visible
Pressure 30.45 in
Visibility 4.0 miles
Clouds Overcast 600 ft
Windchill 40 °F
Dew Point 40 °F
Humidity 92%
Rainfall 0.06 in
Snow Depth Not available.
UV 2 out of 12
Pollen 8.00 out of 12
Air Quality Not available.
Flu Activity Not available.
METAR KPDK 011853Z 10003KT 4SM BR OVC006 06/04 A3041 RMK AO2 SLP309 T00560044

More Conditions Fewer Conditions

Pressure 30.45 in
Visibility 4.0 miles
Clouds Overcast 600 ft
Windchill 40 °F
Dew Point 40 °F
Humidity 92%
Rainfall 0.06 in
Snow Depth Not available.
UV 2 out of 12
Pollen 8.00 out of 12
Air Quality Not available.
Flu Activity Not available.
METAR KPDK 011853Z 10003KT 4SM BR OVC006 06/04 A3041 RMK AO2 SLP309 T00560044

More Conditions Fewer Conditions

10-Day Weather Forecast

Almanac

Astronomy

Mar. 01, 2015 Rise Set
Actual Time
Civil Twilight
Nautical Twilight
Astronomical Twilight
Moon
Length of Visible Light
Length of Day
Tomorrow will be .
, % of the Moon is Illuminated

Today's Extremes

State Highs State Lows

Community

WunderPhotos

Upload Photos

1,801,491 photos uploaded!

WunderBlogs® & News

Nearby

Air Quality

  Air Quality AQ Index Pollutant
Not available.

Snow Depth

Station Depth Elevation

Earthquake Activity

City Distance Mag. Time & Date
Minimum magnitude displayed is 2.5.

Coastal Water Temperatures

Place Temperature

Nearby Weather Stations